createdAt,value
2023-01-22T00:02:58.329Z,8.20
2023-01-22T00:08:19.992Z,7.40
2023-01-22T00:13:41.232Z,8.35
2023-01-22T00:19:02.613Z,7.75
2023-01-22T00:24:23.552Z,11.82
2023-01-22T00:29:44.230Z,14.30
2023-01-22T00:35:05.330Z,9.27
2023-01-22T00:40:26.133Z,9.65
2023-01-22T00:45:46.849Z,9.95
2023-01-22T00:51:13.111Z,10.88
2023-01-22T00:56:34.102Z,10.10
2023-01-22T01:01:54.867Z,7.80
2023-01-22T01:07:15.493Z,12.07
2023-01-22T01:12:38.330Z,13.10
2023-01-22T01:17:58.904Z,10.90
2023-01-22T01:23:19.678Z,11.48
2023-01-22T01:28:41.617Z,12.20
2023-01-22T01:34:03.159Z,11.75
2023-01-22T01:39:23.976Z,13.27
2023-01-22T01:44:44.614Z,10.93
2023-01-22T01:50:06.055Z,11.85
2023-01-22T01:55:29.824Z,15.02
2023-01-22T02:00:54.005Z,11.13
2023-01-22T02:06:17.332Z,13.95
2023-01-22T02:11:39.597Z,13.43
2023-01-22T02:17:13.558Z,13.43
2023-01-22T02:22:37.930Z,13.13
2023-01-22T02:27:58.625Z,15.35
2023-01-22T02:33:19.637Z,12.52
2023-01-22T02:38:40.671Z,11.38
2023-01-22T02:44:02.093Z,12.45
2023-01-22T02:49:23.005Z,10.32
2023-01-22T02:54:44.525Z,13.07
2023-01-22T03:00:06.821Z,14.85
2023-01-22T03:05:27.937Z,11.43
2023-01-22T03:10:49.658Z,12.00
2023-01-22T03:16:29.356Z,12.70
2023-01-22T03:21:50.117Z,16.13
2023-01-22T03:27:10.979Z,12.05
2023-01-22T03:32:32.058Z,13.45
2023-01-22T03:37:53.286Z,11.60
2023-01-22T03:43:14.400Z,15.45
2023-01-22T03:48:35.133Z,12.43
2023-01-22T03:53:55.926Z,13.35
2023-01-22T03:59:18.834Z,12.38
2023-01-22T04:04:40.039Z,13.23
2023-01-22T04:10:02.242Z,13.52
2023-01-22T04:15:24.496Z,14.55
2023-01-22T04:20:52.155Z,16.27
2023-01-22T04:26:25.050Z,17.58
2023-01-22T04:31:47.815Z,18.00
2023-01-22T04:37:38.265Z,18.23
2023-01-22T04:43:07.577Z,21.48
2023-01-22T04:48:28.775Z,20.80
2023-01-22T04:53:50.515Z,22.23
2023-01-22T04:59:11.344Z,24.58
2023-01-22T05:04:33.207Z,20.63
2023-01-22T05:09:54.156Z,24.60
2023-01-22T05:15:24.162Z,20.70
2023-01-22T05:20:47.653Z,21.27
2023-01-22T05:26:10.033Z,25.77
2023-01-22T05:31:35.469Z,21.80
2023-01-22T05:36:58.620Z,21.33
2023-01-22T05:42:21.607Z,21.83
2023-01-22T05:47:44.373Z,20.40
2023-01-22T05:53:17.945Z,19.60
2023-01-22T05:58:38.657Z,20.00
2023-01-22T06:04:00.411Z,22.77
2023-01-22T06:09:21.590Z,20.15
2023-01-22T06:14:42.579Z,20.10
2023-01-22T06:20:06.335Z,23.58
2023-01-22T06:25:27.099Z,19.95
2023-01-22T06:31:08.025Z,22.63
2023-01-22T06:36:30.310Z,23.70
2023-01-22T06:41:52.515Z,18.33
2023-01-22T06:47:13.376Z,24.10
2023-01-22T06:52:34.213Z,27.45
2023-01-22T06:57:55.877Z,23.85
2023-01-22T07:03:16.873Z,26.83
2023-01-22T07:08:37.739Z,20.10
2023-01-22T07:13:58.743Z,24.52
2023-01-22T07:19:19.529Z,25.83
2023-01-22T07:24:40.187Z,21.75
2023-01-22T07:30:01.117Z,20.52
2023-01-22T07:35:22.012Z,20.92
2023-01-22T07:40:42.730Z,19.83
2023-01-22T07:46:05.315Z,17.73
2023-01-22T07:51:26.412Z,17.05
2023-01-22T07:56:47.787Z,19.23
2023-01-22T08:02:15.569Z,19.85
2023-01-22T08:07:36.601Z,18.05
2023-01-22T08:12:57.268Z,19.77
2023-01-22T08:18:20.392Z,20.80
2023-01-22T08:23:46.097Z,18.45
2023-01-22T08:29:08.796Z,23.40
2023-01-22T08:34:29.564Z,24.38
2023-01-22T08:39:50.689Z,26.30
2023-01-22T08:45:11.654Z,22.17
2023-01-22T08:50:32.536Z,24.05
2023-01-22T08:55:53.372Z,26.60
2023-01-22T09:01:16.832Z,24.88
2023-01-22T09:06:40.004Z,24.35
2023-01-22T09:12:01.025Z,27.08
2023-01-22T09:17:21.667Z,24.83
2023-01-22T09:22:45.402Z,28.80
2023-01-22T09:28:08.838Z,15.95
2023-01-22T09:33:29.784Z,22.88
2023-01-22T09:38:51.311Z,20.45
2023-01-22T09:44:12.164Z,23.83
2023-01-22T09:49:53.008Z,24.08
2023-01-22T09:55:17.264Z,24.13
2023-01-22T10:00:39.697Z,15.90
2023-01-22T10:06:06.627Z,29.38
2023-01-22T10:11:27.314Z,17.35
2023-01-22T10:16:49.482Z,26.67
2023-01-22T10:22:22.513Z,27.40
2023-01-22T10:27:45.876Z,21.20
2023-01-22T10:33:07.061Z,23.80
2023-01-22T10:38:30.901Z,23.80
2023-01-22T10:43:51.853Z,26.17
2023-01-22T10:49:22.422Z,23.27
2023-01-22T10:54:48.240Z,23.33
2023-01-22T11:00:15.999Z,20.95
2023-01-22T11:05:37.499Z,16.52
2023-01-22T11:11:06.731Z,19.40
2023-01-22T11:16:32.165Z,19.87
2023-01-22T11:21:57.585Z,18.38
2023-01-22T11:27:34.188Z,18.08
2023-01-22T11:33:13.296Z,18.00
2023-01-22T11:39:11.741Z,14.35
2023-01-22T11:44:47.911Z,11.23
2023-01-22T11:50:30.393Z,13.88
2023-01-22T11:56:16.437Z,13.50
2023-01-22T12:01:52.535Z,12.70
2023-01-22T12:07:32.321Z,13.00
2023-01-22T12:13:13.216Z,15.30
2023-01-22T12:18:52.716Z,14.43
2023-01-22T12:24:21.997Z,13.80
2023-01-22T12:29:52.587Z,13.13
2023-01-22T12:35:19.324Z,16.67
2023-01-22T12:40:46.469Z,16.02
2023-01-22T12:46:26.069Z,14.00
2023-01-22T12:51:49.922Z,14.57
2023-01-22T12:57:15.568Z,18.92
2023-01-22T13:02:38.904Z,18.10
2023-01-22T13:08:06.871Z,14.73
2023-01-22T13:13:35.633Z,12.82
2023-01-22T13:18:59.834Z,13.05
2023-01-22T13:24:21.799Z,13.57
2023-01-22T13:29:42.734Z,12.18
2023-01-22T13:35:05.951Z,15.60
2023-01-22T13:40:31.561Z,14.25
2023-01-22T13:45:57.023Z,18.10
2023-01-22T13:51:21.780Z,11.35
2023-01-22T13:56:42.521Z,10.13
2023-01-22T14:02:24.520Z,14.48
2023-01-22T14:07:45.107Z,12.35
2023-01-22T14:13:11.248Z,17.33
2023-01-22T14:18:32.380Z,10.25
2023-01-22T14:23:53.075Z,16.63
2023-01-22T14:29:13.883Z,13.07
2023-01-22T14:34:34.434Z,14.20
2023-01-22T14:39:55.062Z,13.82
2023-01-22T14:45:17.358Z,14.23
2023-01-22T14:50:39.729Z,17.90
2023-01-22T14:56:01.085Z,17.17
2023-01-22T15:01:22.915Z,16.35
2023-01-22T15:06:44.428Z,17.27
2023-01-22T15:12:05.605Z,19.08
2023-01-22T15:17:26.391Z,17.33
2023-01-22T15:22:48.408Z,16.92
2023-01-22T15:28:09.566Z,16.40
2023-01-22T15:33:30.394Z,15.00
2023-01-22T15:38:51.114Z,13.93
2023-01-22T15:44:13.486Z,14.15
2023-01-22T15:49:34.982Z,17.33
2023-01-22T15:54:57.749Z,12.50
2023-01-22T16:00:19.101Z,11.05
2023-01-22T16:05:39.742Z,15.25
2023-01-22T16:11:00.699Z,11.88
2023-01-22T16:16:27.773Z,11.30
2023-01-22T16:21:48.883Z,14.25
2023-01-22T16:27:09.734Z,13.20
2023-01-22T16:32:31.476Z,17.38
2023-01-22T16:37:52.357Z,14.23
2023-01-22T16:43:12.965Z,15.05
2023-01-22T16:48:33.683Z,12.10
2023-01-22T16:53:55.518Z,13.88
2023-01-22T16:59:16.976Z,16.55
2023-01-22T17:04:37.830Z,18.55
2023-01-22T17:09:59.031Z,15.55
2023-01-22T17:15:20.664Z,15.48
2023-01-22T17:20:50.893Z,22.45
2023-01-22T17:26:19.170Z,17.13
2023-01-22T17:31:40.351Z,14.07
2023-01-22T17:37:01.071Z,14.63
2023-01-22T17:42:21.716Z,17.23
2023-01-22T17:47:44.300Z,16.35
2023-01-22T17:53:05.112Z,16.48
2023-01-22T17:58:25.902Z,22.02
2023-01-22T18:03:47.786Z,15.40
2023-01-22T18:09:10.112Z,22.00
2023-01-22T18:14:36.678Z,16.98
2023-01-22T18:19:57.557Z,21.95
2023-01-22T18:25:18.455Z,24.23
2023-01-22T18:30:39.981Z,25.67
2023-01-22T18:36:01.125Z,19.70
2023-01-22T18:41:24.409Z,29.77
2023-01-22T18:46:48.284Z,39.70
2023-01-22T18:52:09.246Z,27.98
2023-01-22T18:57:30.284Z,36.47
2023-01-22T19:02:55.968Z,32.38
2023-01-22T19:08:17.983Z,31.08
2023-01-22T19:13:40.345Z,31.75
2023-01-22T19:19:07.777Z,26.17
2023-01-22T19:24:28.786Z,34.00
2023-01-22T19:29:51.223Z,30.60
2023-01-22T19:35:13.486Z,26.83
2023-01-22T19:40:34.370Z,30.17
2023-01-22T19:45:56.173Z,25.30
2023-01-22T19:51:17.794Z,27.83
2023-01-22T19:56:41.588Z,29.60
2023-01-22T20:02:02.622Z,26.70
2023-01-22T20:07:25.181Z,27.10
2023-01-22T20:12:50.234Z,35.75
2023-01-22T20:18:11.396Z,25.60
2023-01-22T20:23:32.201Z,30.40
2023-01-22T20:28:53.057Z,27.15
2023-01-22T20:34:13.750Z,26.35
2023-01-22T20:39:34.647Z,22.52
2023-01-22T20:44:58.323Z,35.42
2023-01-22T20:50:19.420Z,36.53
2023-01-22T20:55:40.190Z,30.77
2023-01-22T21:01:15.983Z,24.45
2023-01-22T21:06:39.389Z,22.98
2023-01-22T21:12:00.645Z,24.58
2023-01-22T21:17:22.098Z,23.10
2023-01-22T21:22:43.079Z,20.75
2023-01-22T21:28:04.471Z,22.67
2023-01-22T21:33:25.834Z,27.00
2023-01-22T21:38:51.887Z,29.15
2023-01-22T21:44:35.951Z,29.85
2023-01-22T21:49:56.701Z,32.35
2023-01-22T21:55:17.346Z,32.42
2023-01-22T22:00:37.942Z,30.20
2023-01-22T22:06:02.121Z,39.28
2023-01-22T22:11:24.907Z,34.15
2023-01-22T22:16:46.487Z,39.42
2023-01-22T22:22:07.427Z,42.97
2023-01-22T22:27:28.109Z,43.80
2023-01-22T22:32:49.515Z,40.55
2023-01-22T22:38:10.181Z,37.10
2023-01-22T22:43:44.392Z,37.40
2023-01-22T22:49:06.241Z,41.83
2023-01-22T22:54:27.545Z,30.95
2023-01-22T22:59:48.541Z,36.55
2023-01-22T23:05:09.394Z,27.63
2023-01-22T23:10:30.676Z,29.13
2023-01-22T23:15:51.286Z,34.53
2023-01-22T23:21:17.896Z,32.70
2023-01-22T23:26:40.348Z,31.33
2023-01-22T23:32:01.498Z,32.45
2023-01-22T23:37:22.616Z,34.47
2023-01-22T23:42:48.074Z,28.92
2023-01-22T23:48:08.677Z,33.45
2023-01-22T23:53:29.545Z,57.55
2023-01-22T23:58:54.392Z,38.13
